createdAt,value
2023-04-04T00:00:53.495Z,3.70
2023-04-04T00:03:21.782Z,3.80
2023-04-04T00:05:51.831Z,4.80
2023-04-04T00:08:20.231Z,7.30
2023-04-04T00:10:48.361Z,6.80
2023-04-04T00:13:16.562Z,7.30
2023-04-04T00:15:44.727Z,8.30
2023-04-04T00:18:12.910Z,10.20
2023-04-04T00:20:41.526Z,7.10
2023-04-04T00:23:11.290Z,5.90
2023-04-04T00:25:39.473Z,5.50
2023-04-04T00:28:07.594Z,5.90
2023-04-04T00:30:35.834Z,7.80
2023-04-04T00:33:04.658Z,7.60
2023-04-04T00:35:33.551Z,3.70
2023-04-04T00:38:01.894Z,4.00
2023-04-04T00:40:30.288Z,4.30
2023-04-04T00:43:00.598Z,6.10
2023-04-04T00:45:28.911Z,4.20
2023-04-04T00:47:58.831Z,9.00
2023-04-04T00:50:27.095Z,7.40
2023-04-04T00:52:56.463Z,5.40
2023-04-04T00:55:25.871Z,4.80
2023-04-04T00:57:54.478Z,7.70
2023-04-04T01:00:22.928Z,4.90
2023-04-04T01:02:51.629Z,2.50
2023-04-04T01:05:19.731Z,3.40
2023-04-04T01:07:48.511Z,7.00
2023-04-04T01:10:17.331Z,3.20
2023-04-04T01:12:45.831Z,3.20
2023-04-04T01:15:14.255Z,3.50
2023-04-04T01:17:43.776Z,4.80
2023-04-04T01:20:16.245Z,1.90
2023-04-04T01:22:51.117Z,4.40
2023-04-04T01:25:27.910Z,6.20
2023-04-04T01:27:59.337Z,5.20
2023-04-04T01:30:32.258Z,7.80
2023-04-04T01:33:11.059Z,4.60
2023-04-04T01:35:50.796Z,6.40
2023-04-04T01:38:49.731Z,4.80
2023-04-04T01:41:20.565Z,4.60
2023-04-04T01:43:56.256Z,5.20
2023-04-04T01:46:25.827Z,4.90
2023-04-04T01:48:54.058Z,5.60
2023-04-04T01:51:27.168Z,5.20
2023-04-04T01:53:55.861Z,6.20
2023-04-04T01:56:24.798Z,4.80
2023-04-04T01:58:54.042Z,2.90
2023-04-04T02:01:22.318Z,4.10
2023-04-04T02:03:50.788Z,4.00
2023-04-04T02:06:19.691Z,3.20
2023-04-04T02:08:48.264Z,3.50
2023-04-04T02:11:17.684Z,4.90
2023-04-04T02:13:46.455Z,6.40
2023-04-04T02:16:16.826Z,2.60
2023-04-04T02:18:45.166Z,3.10
2023-04-04T02:21:13.733Z,4.30
2023-04-04T02:23:41.870Z,7.30
2023-04-04T02:26:10.052Z,3.60
2023-04-04T02:28:39.909Z,5.70
2023-04-04T02:31:07.989Z,3.60
2023-04-04T02:33:36.464Z,3.80
2023-04-04T02:36:06.393Z,5.60
2023-04-04T02:38:34.796Z,7.10
2023-04-04T02:41:05.994Z,3.50
2023-04-04T02:43:34.364Z,5.50
2023-04-04T02:46:14.354Z,5.60
2023-04-04T02:48:47.263Z,4.00
2023-04-04T02:51:15.903Z,5.80
2023-04-04T02:53:44.118Z,6.00
2023-04-04T02:56:20.130Z,7.40
2023-04-04T02:58:48.655Z,9.30
2023-04-04T03:01:16.895Z,5.40
2023-04-04T03:03:45.522Z,7.70
2023-04-04T03:06:15.161Z,5.90
2023-04-04T03:08:43.404Z,4.30
2023-04-04T03:11:12.217Z,5.80
2023-04-04T03:13:40.867Z,5.90
2023-04-04T03:16:08.976Z,7.40
2023-04-04T03:18:45.443Z,7.90
2023-04-04T03:21:14.195Z,5.80
2023-04-04T03:23:43.218Z,5.30
2023-04-04T03:26:11.729Z,6.40
2023-04-04T03:28:39.885Z,2.40
2023-04-04T03:31:08.278Z,8.30
2023-04-04T03:33:40.126Z,6.20
2023-04-04T03:36:14.382Z,7.80
2023-04-04T03:38:43.041Z,9.50
2023-04-04T03:41:11.714Z,7.00
2023-04-04T03:43:40.027Z,7.70
2023-04-04T03:46:09.239Z,7.00
2023-04-04T03:48:37.504Z,5.10
2023-04-04T03:51:08.090Z,9.90
2023-04-04T03:53:37.449Z,3.40
2023-04-04T03:56:05.655Z,5.80
2023-04-04T03:58:36.435Z,8.10
2023-04-04T04:01:04.941Z,6.40
2023-04-04T04:03:33.292Z,2.60
2023-04-04T04:06:01.641Z,2.60
2023-04-04T04:08:29.762Z,4.10
2023-04-04T04:11:04.283Z,4.50
2023-04-04T04:13:36.386Z,8.20
2023-04-04T04:16:05.360Z,9.50
2023-04-04T04:18:34.227Z,5.10
2023-04-04T04:21:04.300Z,5.50
2023-04-04T04:23:33.379Z,4.30
2023-04-04T04:26:01.591Z,7.60
2023-04-04T04:28:33.815Z,6.80
2023-04-04T04:31:08.534Z,6.70
2023-04-04T04:33:42.789Z,6.50
2023-04-04T04:36:11.660Z,10.70
2023-04-04T04:38:57.735Z,6.50
2023-04-04T04:41:29.486Z,10.30
2023-04-04T04:43:57.814Z,8.10
2023-04-04T04:46:27.073Z,4.90
2023-04-04T04:48:55.279Z,7.40
2023-04-04T04:51:27.568Z,10.10
2023-04-04T04:53:57.064Z,6.30
2023-04-04T04:56:25.527Z,9.30
2023-04-04T04:58:55.071Z,10.30
2023-04-04T05:01:26.710Z,9.00
2023-04-04T05:03:56.834Z,6.60
2023-04-04T05:06:31.573Z,6.20
2023-04-04T05:09:00.219Z,7.70
2023-04-04T05:11:34.826Z,7.30
2023-04-04T05:14:04.005Z,6.50
2023-04-04T05:16:36.487Z,6.00
2023-04-04T05:19:05.724Z,9.80
2023-04-04T05:21:38.537Z,13.50
2023-04-04T05:24:08.358Z,7.20
2023-04-04T05:26:38.256Z,11.60
2023-04-04T05:29:07.180Z,8.60
2023-04-04T05:31:35.745Z,11.50
2023-04-04T05:34:10.036Z,7.10
2023-04-04T05:36:39.655Z,8.50
2023-04-04T05:39:08.091Z,8.00
2023-04-04T05:41:40.802Z,9.10
2023-04-04T05:44:27.582Z,5.10
2023-04-04T05:46:57.300Z,7.30
2023-04-04T05:49:25.921Z,6.30
2023-04-04T05:51:59.482Z,4.70
2023-04-04T05:54:28.467Z,6.10
2023-04-04T05:56:57.585Z,6.00
2023-04-04T05:59:38.985Z,7.40
2023-04-04T06:02:08.458Z,7.90
2023-04-04T06:07:11.563Z,7.30
2023-04-04T06:09:40.782Z,4.10
2023-04-04T06:12:09.369Z,5.20
2023-04-04T06:14:37.968Z,8.00
2023-04-04T06:17:07.624Z,7.30
2023-04-04T06:19:36.833Z,6.00
2023-04-04T06:22:04.931Z,5.40
2023-04-04T06:24:37.022Z,6.60
2023-04-04T06:27:06.736Z,6.00
2023-04-04T06:29:37.451Z,7.60
2023-04-04T06:32:07.590Z,7.40
2023-04-04T06:34:39.423Z,6.50
2023-04-04T06:37:07.993Z,6.60
2023-04-04T06:39:50.606Z,7.50
2023-04-04T06:42:26.085Z,5.70
2023-04-04T06:44:54.915Z,5.00
2023-04-04T06:47:23.107Z,7.40
2023-04-04T06:49:51.587Z,8.10
2023-04-04T06:52:20.488Z,9.80
2023-04-04T06:54:48.699Z,7.20
2023-04-04T06:57:18.406Z,6.20
2023-04-04T06:59:46.657Z,6.00
2023-04-04T07:02:14.726Z,6.20
2023-04-04T07:04:43.166Z,6.30
2023-04-04T07:07:12.427Z,6.90
2023-04-04T07:09:40.499Z,7.70
2023-04-04T07:12:08.609Z,4.10
2023-04-04T07:14:37.161Z,7.30
2023-04-04T07:17:13.685Z,9.50
2023-04-04T07:19:49.838Z,8.30
2023-04-04T07:22:18.104Z,11.20
2023-04-04T07:24:46.341Z,7.70
2023-04-04T07:27:16.049Z,7.40
2023-04-04T07:29:44.129Z,4.40
2023-04-04T07:32:12.481Z,7.70
2023-04-04T07:34:41.842Z,9.80
2023-04-04T07:37:09.902Z,9.50
2023-04-04T07:39:38.409Z,5.20
2023-04-04T07:42:06.846Z,7.40
2023-04-04T07:44:35.108Z,5.10
2023-04-04T07:47:09.962Z,4.90
2023-04-04T07:49:39.030Z,6.30
2023-04-04T07:52:07.308Z,5.40
2023-04-04T07:54:36.298Z,4.00
2023-04-04T07:57:10.238Z,4.40
2023-04-04T07:59:38.407Z,8.90
2023-04-04T08:02:07.392Z,8.10
2023-04-04T08:04:35.757Z,4.90
2023-04-04T08:07:04.086Z,4.80
2023-04-04T08:09:34.596Z,3.50
2023-04-04T08:12:03.635Z,4.70
2023-04-04T08:14:31.951Z,5.90
2023-04-04T08:17:00.282Z,3.10
2023-04-04T08:19:28.448Z,4.10
2023-04-04T08:21:56.855Z,4.40
2023-04-04T08:24:27.041Z,2.00
2023-04-04T08:27:04.498Z,3.10
2023-04-04T08:29:34.820Z,6.80
2023-04-04T08:32:03.318Z,3.00
2023-04-04T08:34:32.143Z,5.30
2023-04-04T08:37:00.480Z,4.20
2023-04-04T08:39:28.701Z,4.70
2023-04-04T08:42:02.903Z,3.20
2023-04-04T08:44:32.888Z,2.50
2023-04-04T08:47:05.527Z,6.70
2023-04-04T08:49:38.241Z,5.10
2023-04-04T08:52:07.773Z,4.40
2023-04-04T08:54:39.116Z,5.50
2023-04-04T08:57:08.603Z,5.60
2023-04-04T08:59:37.440Z,3.70
2023-04-04T09:02:09.748Z,4.70
2023-04-04T09:04:39.605Z,8.30
2023-04-04T09:07:09.310Z,7.10
2023-04-04T09:09:39.318Z,4.00
2023-04-04T09:12:08.416Z,4.70
2023-04-04T09:14:39.990Z,4.60
2023-04-04T09:17:10.981Z,4.90
2023-04-04T09:19:39.365Z,5.40
2023-04-04T09:22:09.183Z,5.80
2023-04-04T09:24:41.899Z,6.40
2023-04-04T09:27:11.637Z,5.00
2023-04-04T09:29:41.245Z,5.20
2023-04-04T09:32:10.529Z,4.20
2023-04-04T09:34:38.899Z,5.30
2023-04-04T09:37:07.558Z,4.10
2023-04-04T09:39:40.488Z,2.00
2023-04-04T09:42:08.974Z,2.70
2023-04-04T09:44:37.219Z,3.30
2023-04-04T09:50:01.073Z,6.40
2023-04-04T09:52:36.042Z,2.60
2023-04-04T09:55:06.656Z,4.20
2023-04-04T09:57:38.038Z,5.20
2023-04-04T10:00:11.324Z,4.60
2023-04-04T10:02:47.058Z,6.90
2023-04-04T10:05:16.862Z,6.30
2023-04-04T10:07:45.006Z,3.50
2023-04-04T10:10:14.023Z,4.40
2023-04-04T10:12:46.990Z,6.30
2023-04-04T10:15:16.632Z,2.90
2023-04-04T10:17:45.804Z,4.00
2023-04-04T10:20:14.161Z,5.60
2023-04-04T10:22:44.990Z,4.60
2023-04-04T10:25:14.334Z,3.20
2023-04-04T10:27:42.422Z,3.50
2023-04-04T10:30:11.392Z,5.10
2023-04-04T10:33:02.627Z,8.90
2023-04-04T10:35:31.957Z,3.80
2023-04-04T10:38:03.088Z,4.50
2023-04-04T10:40:35.973Z,5.30
2023-04-04T10:43:05.861Z,6.20
2023-04-04T10:45:40.661Z,6.40
2023-04-04T10:48:10.641Z,5.30
2023-04-04T10:50:39.547Z,3.00
2023-04-04T10:53:08.774Z,3.10
2023-04-04T10:55:39.183Z,3.10
2023-04-04T10:58:09.005Z,6.50
2023-04-04T11:00:51.950Z,5.50
2023-04-04T11:03:20.331Z,3.80
2023-04-04T11:05:51.167Z,1.60
2023-04-04T11:08:27.420Z,5.40
2023-04-04T11:10:57.625Z,5.20
2023-04-04T11:13:27.334Z,2.90
2023-04-04T11:15:58.131Z,3.40
2023-04-04T11:18:33.991Z,9.10
2023-04-04T11:21:05.381Z,2.40
2023-04-04T11:24:15.929Z,3.70
2023-04-04T11:26:46.197Z,4.50
2023-04-04T11:29:22.427Z,3.10
2023-04-04T11:31:51.526Z,4.10
2023-04-04T11:34:33.326Z,3.40
2023-04-04T11:37:17.942Z,4.80
2023-04-04T11:39:59.162Z,5.30
2023-04-04T11:42:34.440Z,4.30
2023-04-04T11:45:10.378Z,3.20
2023-04-04T11:47:39.395Z,3.70
2023-04-04T11:50:10.183Z,5.00
2023-04-04T11:52:40.988Z,3.80
2023-04-04T11:55:20.093Z,6.80
2023-04-04T11:57:51.623Z,5.60
2023-04-04T12:00:47.124Z,4.20
2023-04-04T12:03:21.922Z,5.80
2023-04-04T12:05:50.268Z,4.50
2023-04-04T12:08:19.118Z,2.10
2023-04-04T12:10:47.251Z,2.50
2023-04-04T12:13:16.487Z,3.60
2023-04-04T12:15:45.307Z,5.10
2023-04-04T12:18:22.176Z,4.70
2023-04-04T12:20:54.335Z,4.10
2023-04-04T12:23:22.478Z,3.70
2023-04-04T12:25:54.943Z,7.00
2023-04-04T12:28:23.557Z,5.10
2023-04-04T12:30:52.184Z,3.50
2023-04-04T12:33:21.334Z,4.90
2023-04-04T12:35:53.726Z,8.60
2023-04-04T12:40:51.535Z,12.50
2023-04-04T12:43:21.014Z,14.90
2023-04-04T12:45:54.759Z,9.30
2023-04-04T12:48:29.075Z,9.40
2023-04-04T12:50:59.289Z,7.20
2023-04-04T12:53:30.046Z,5.70
2023-04-04T12:56:05.280Z,8.20
2023-04-04T12:58:35.996Z,5.00
2023-04-04T13:01:07.145Z,6.40
2023-04-04T13:03:37.990Z,4.30
2023-04-04T13:06:16.303Z,2.80
2023-04-04T13:08:54.406Z,6.40
2023-04-04T13:11:22.922Z,3.50
2023-04-04T13:14:04.366Z,5.60
2023-04-04T13:16:37.373Z,4.30
2023-04-04T13:19:05.721Z,3.70
2023-04-04T13:21:35.250Z,4.20
2023-04-04T13:24:04.275Z,3.70
2023-04-04T13:26:32.687Z,4.30
2023-04-04T13:29:01.000Z,3.00
2023-04-04T13:31:29.358Z,7.70
2023-04-04T13:33:57.545Z,6.10
2023-04-04T13:36:28.546Z,3.60
2023-04-04T13:38:57.203Z,3.00
2023-04-04T13:41:25.474Z,5.00
2023-04-04T13:43:53.580Z,6.70
2023-04-04T13:46:21.673Z,6.40
2023-04-04T13:48:49.984Z,7.20
2023-04-04T13:51:18.050Z,3.20
2023-04-04T13:53:46.261Z,2.80
2023-04-04T13:56:18.428Z,5.20
2023-04-04T13:58:48.255Z,3.20
2023-04-04T14:01:16.710Z,3.30
2023-04-04T14:03:44.897Z,4.00
2023-04-04T14:06:13.059Z,5.00
2023-04-04T14:08:41.625Z,4.80
2023-04-04T14:11:09.677Z,2.70
2023-04-04T14:13:37.796Z,2.50
2023-04-04T14:16:08.125Z,2.70
2023-04-04T14:18:36.343Z,2.80
2023-04-04T14:21:05.477Z,2.60
2023-04-04T14:23:33.619Z,4.60
2023-04-04T14:26:01.786Z,5.20
2023-04-04T14:28:30.120Z,3.20
2023-04-04T14:30:58.160Z,1.60
2023-04-04T14:33:26.411Z,3.20
2023-04-04T14:35:54.487Z,2.60
2023-04-04T14:38:23.007Z,4.00
2023-04-04T14:40:51.046Z,5.80
2023-04-04T14:43:19.580Z,4.80
2023-04-04T14:45:48.254Z,5.00
2023-04-04T14:48:16.307Z,4.60
2023-04-04T14:50:46.040Z,3.00
2023-04-04T14:53:14.321Z,6.20
2023-04-04T14:55:42.652Z,7.50
2023-04-04T14:58:10.939Z,5.30
2023-04-04T15:00:39.659Z,3.90
2023-04-04T15:03:08.522Z,5.90
2023-04-04T15:05:36.805Z,3.00
2023-04-04T15:08:05.021Z,4.00
2023-04-04T15:10:33.248Z,3.30
2023-04-04T15:13:01.333Z,3.70
2023-04-04T15:15:29.413Z,3.10
2023-04-04T15:17:58.692Z,3.20
2023-04-04T15:20:26.871Z,6.60
2023-04-04T15:22:55.050Z,3.50
2023-04-04T15:25:23.389Z,4.30
2023-04-04T15:27:51.479Z,5.50
2023-04-04T15:30:19.684Z,7.10
2023-04-04T15:32:47.947Z,4.80
2023-04-04T15:35:19.259Z,5.40
2023-04-04T15:37:49.119Z,5.80
2023-04-04T15:40:18.782Z,2.70
2023-04-04T15:42:48.001Z,1.90
2023-04-04T15:45:16.406Z,3.00
2023-04-04T15:47:45.173Z,3.80
2023-04-04T15:50:13.953Z,3.50
2023-04-04T15:52:42.190Z,3.30
2023-04-04T15:55:12.973Z,3.60
2023-04-04T15:57:44.573Z,3.10
2023-04-04T16:00:14.134Z,4.70
2023-04-04T16:02:42.806Z,3.30
2023-04-04T16:05:11.359Z,4.70
2023-04-04T16:07:39.498Z,4.20
2023-04-04T16:10:08.210Z,5.30
2023-04-04T16:12:36.566Z,2.60
2023-04-04T16:15:07.092Z,4.00
2023-04-04T16:17:35.351Z,5.60
2023-04-04T16:20:05.122Z,5.00
2023-04-04T16:22:33.458Z,3.40
2023-04-04T16:25:01.525Z,10.50
2023-04-04T16:27:29.817Z,4.70
2023-04-04T16:29:58.183Z,2.80
2023-04-04T16:32:26.504Z,5.80
2023-04-04T16:34:54.671Z,2.90
2023-04-04T16:37:23.387Z,4.60
2023-04-04T16:39:52.174Z,3.40
2023-04-04T16:42:20.356Z,5.50
2023-04-04T16:44:48.938Z,5.20
2023-04-04T16:47:16.991Z,3.00
2023-04-04T16:49:47.532Z,7.70
2023-04-04T16:52:16.101Z,6.80
2023-04-04T16:54:44.357Z,11.20
2023-04-04T16:57:12.470Z,7.30
2023-04-04T16:59:40.887Z,3.70
2023-04-04T17:02:09.697Z,2.90
2023-04-04T17:04:41.960Z,6.30
2023-04-04T17:07:11.012Z,6.30
2023-04-04T17:09:39.450Z,5.50
2023-04-04T17:12:08.452Z,4.30
2023-04-04T17:14:37.380Z,14.70
2023-04-04T17:17:05.943Z,5.40
2023-04-04T17:19:35.337Z,4.50
2023-04-04T17:22:03.836Z,6.30
2023-04-04T17:24:32.291Z,3.20
2023-04-04T17:27:01.616Z,4.40
2023-04-04T17:29:30.313Z,5.30
2023-04-04T17:31:58.634Z,12.00
2023-04-04T17:34:26.978Z,11.90
2023-04-04T17:36:55.775Z,9.10
2023-04-04T17:39:24.421Z,6.30
2023-04-04T17:41:53.171Z,14.00
2023-04-04T17:44:22.468Z,10.30
2023-04-04T17:46:51.196Z,9.00
2023-04-04T17:49:20.699Z,6.40
2023-04-04T17:51:50.741Z,8.20
2023-04-04T17:54:21.832Z,6.90
2023-04-04T17:56:50.475Z,6.80
2023-04-04T17:59:18.833Z,6.80
2023-04-04T18:01:47.433Z,7.30
2023-04-04T18:04:16.422Z,7.80
2023-04-04T18:06:44.581Z,10.10
2023-04-04T18:09:13.461Z,11.90
2023-04-04T18:11:42.091Z,8.10
2023-04-04T18:14:10.168Z,9.70
2023-04-04T18:16:40.846Z,10.90
2023-04-04T18:19:09.977Z,9.80
2023-04-04T18:21:38.718Z,12.00
2023-04-04T18:24:11.384Z,9.70
2023-04-04T18:29:08.379Z,12.30
2023-04-04T18:31:36.931Z,12.10
2023-04-04T18:34:05.254Z,13.80
2023-04-04T18:36:33.356Z,12.60
2023-04-04T18:39:03.604Z,9.60
2023-04-04T18:41:32.502Z,15.10
2023-04-04T18:44:00.867Z,16.80
2023-04-04T18:46:29.597Z,10.60
2023-04-04T18:48:58.573Z,7.80
2023-04-04T18:51:26.977Z,10.90
2023-04-04T18:53:55.378Z,9.40
2023-04-04T18:56:23.525Z,11.90
2023-04-04T18:58:52.341Z,7.90
2023-04-04T19:01:21.237Z,6.60
2023-04-04T19:03:51.958Z,12.20
2023-04-04T19:06:26.941Z,8.70
2023-04-04T19:08:58.645Z,11.90
2023-04-04T19:11:32.962Z,12.10
2023-04-04T19:14:01.140Z,13.20
2023-04-04T19:16:29.540Z,13.10
2023-04-04T19:18:57.665Z,12.10
2023-04-04T19:21:26.292Z,12.20
2023-04-04T19:23:54.617Z,14.00
2023-04-04T19:26:22.703Z,14.00
2023-04-04T19:28:51.250Z,14.50
2023-04-04T19:31:22.302Z,13.30
2023-04-04T19:33:51.773Z,14.10
2023-04-04T19:36:20.055Z,9.30
2023-04-04T19:38:51.898Z,11.30
2023-04-04T19:41:33.832Z,11.20
2023-04-04T19:44:03.517Z,8.20
2023-04-04T19:46:33.228Z,12.20
2023-04-04T19:49:27.985Z,11.60
2023-04-04T19:51:58.697Z,8.40
2023-04-04T19:54:29.149Z,13.50
2023-04-04T19:57:01.074Z,10.70
2023-04-04T19:59:57.012Z,14.20
2023-04-04T20:02:31.436Z,10.80
2023-04-04T20:05:00.182Z,13.50
2023-04-04T20:07:29.778Z,13.50
2023-04-04T20:09:58.069Z,12.00
2023-04-04T20:12:33.881Z,15.50
2023-04-04T20:15:01.937Z,13.60
2023-04-04T20:17:30.110Z,17.00
2023-04-04T20:19:58.337Z,16.40
2023-04-04T20:22:26.592Z,15.50
2023-04-04T20:24:54.772Z,15.80
2023-04-04T20:27:24.415Z,19.40
2023-04-04T20:29:54.166Z,15.60
2023-04-04T20:32:22.562Z,15.10
2023-04-04T20:34:50.907Z,10.70
2023-04-04T20:37:26.277Z,16.20
2023-04-04T20:40:09.920Z,11.60
2023-04-04T20:42:40.825Z,12.00
2023-04-04T20:45:09.049Z,10.70
2023-04-04T20:47:48.912Z,9.20
2023-04-04T20:50:17.194Z,11.30
2023-04-04T20:53:03.151Z,11.80
2023-04-04T20:55:33.546Z,6.70
2023-04-04T20:58:10.262Z,6.00
2023-04-04T21:00:41.082Z,5.10
2023-04-04T21:03:31.014Z,4.50
2023-04-04T21:06:11.088Z,2.70
2023-04-04T21:08:50.717Z,3.10
2023-04-04T21:11:29.203Z,4.10
2023-04-04T21:13:57.784Z,5.00
2023-04-04T21:16:28.032Z,5.20
2023-04-04T21:19:00.877Z,5.00
2023-04-04T21:21:29.677Z,4.90
2023-04-04T21:24:00.119Z,3.40
2023-04-04T21:26:40.906Z,8.00
2023-04-04T21:29:25.354Z,4.00
2023-04-04T21:31:55.715Z,4.30
2023-04-04T21:34:25.816Z,7.00
2023-04-04T21:37:07.896Z,4.10
2023-04-04T21:39:38.700Z,4.20
2023-04-04T21:42:08.831Z,3.90
2023-04-04T21:44:38.661Z,3.80
2023-04-04T21:47:07.164Z,9.80
2023-04-04T21:49:35.218Z,8.60
2023-04-04T21:52:03.268Z,11.30
2023-04-04T21:54:31.546Z,10.20
2023-04-04T21:56:59.633Z,13.90
2023-04-04T21:59:27.874Z,12.80
2023-04-04T22:01:56.281Z,11.10
2023-04-04T22:04:24.817Z,13.90
2023-04-04T22:06:52.934Z,13.80
2023-04-04T22:09:22.720Z,11.50
2023-04-04T22:11:51.317Z,10.70
2023-04-04T22:14:19.357Z,11.20
2023-04-04T22:16:47.605Z,10.80
2023-04-04T22:19:15.887Z,10.90
2023-04-04T22:21:48.475Z,10.80
2023-04-04T22:24:18.447Z,10.10
2023-04-04T22:26:47.041Z,10.40
2023-04-04T22:29:17.462Z,9.60
2023-04-04T22:31:45.762Z,13.50
2023-04-04T22:34:15.268Z,12.50
2023-04-04T22:36:46.929Z,15.10
2023-04-04T22:39:16.558Z,13.10
2023-04-04T22:41:44.758Z,12.30
2023-04-04T22:44:12.977Z,11.00
2023-04-04T22:46:41.699Z,14.10
2023-04-04T22:49:10.227Z,10.30
2023-04-04T22:51:45.985Z,10.70
2023-04-04T22:54:18.137Z,9.70
2023-04-04T22:56:46.586Z,12.20
2023-04-04T22:59:14.764Z,10.30
2023-04-04T23:01:43.269Z,10.20
2023-04-04T23:04:11.576Z,12.20
2023-04-04T23:06:39.774Z,9.90
2023-04-04T23:09:08.409Z,9.20
2023-04-04T23:11:39.900Z,8.40
2023-04-04T23:14:09.047Z,8.20
2023-04-04T23:16:37.853Z,7.70
2023-04-04T23:19:06.243Z,12.90
2023-04-04T23:21:38.004Z,10.90
2023-04-04T23:24:07.362Z,7.20
2023-04-04T23:26:35.584Z,13.50
2023-04-04T23:29:04.048Z,9.10
2023-04-04T23:31:32.733Z,6.80
2023-04-04T23:34:01.005Z,9.20
2023-04-04T23:36:29.296Z,10.20
2023-04-04T23:38:57.875Z,10.70
2023-04-04T23:41:26.448Z,9.70
2023-04-04T23:43:54.840Z,12.50
2023-04-04T23:46:24.146Z,10.20
2023-04-04T23:48:52.365Z,9.60
2023-04-04T23:51:21.596Z,10.50
2023-04-04T23:53:49.845Z,9.60
2023-04-04T23:56:18.259Z,11.40
2023-04-04T23:58:46.360Z,10.30
